50.2°F
Current conditions from King Hill
Updated every 5 minutes
 
  Monday November 24, 2014

Station Historical Data
Daily Summary for January 12, 2011 Units:  Both    English   Metric
« Previous Day
Next Day »
Daily Weekly Monthly Yearly Custom
  High: Low: Average:
Temperature: 19.4 °F /  -7 °C 10.0 °F /  -12.2 °C 15.9 °F /  -8.9 °C
Dew Point: 16.2 °F /  -8.8 °C 6.1 °F /  -14.4 °C 12.2 °F /  -11 °C
Humidity: 92% 81% 85%
Wind Speed: 7.0mph /  11.3km/h - 2.6mph /  4.2km/h
Wind Gust: 18.0mph /  29km/h - -
Wind- - ESE
Pressure: 29.95 in /  1014.1 hPa 29.67 in /  1004.6 hPa -
Precipitation: 0.00 in /  0 mm    
Historical Graphs
 
 
Tabular Data for January 12, 2011
Time Temperature Dew Point Pressure Wind Wind Speed Wind Gust Humidity Daily Rainfall
00:04 10.9 °F /  -11.7 °C 7.3 °F /  -13.7 °C 29.95in /  1014.1hPa Calm   2.0mph /  3.2km/h 85% 0.00in /  0mm
00:09 10.9 °F /  -11.7 °C 7.3 °F /  -13.7 °C 29.95in /  1014.1hPa Calm   2.0mph /  3.2km/h 85% 0.00in /  0mm
00:14 11.0 °F /  -11.7 °C 7.4 °F /  -13.7 °C 29.95in /  1014.1hPa Calm   1.0mph /  1.6km/h 85% 0.00in /  0mm
00:19 10.9 °F /  -11.7 °C 7.3 °F /  -13.7 °C 29.95in /  1014.1hPa Calm   1.0mph /  1.6km/h 85% 0.00in /  0mm
00:24 10.9 °F /  -11.7 °C 7.3 °F /  -13.7 °C 29.95in /  1014.1hPa Calm     85% 0.00in /  0mm
00:29 10.9 °F /  -11.7 °C 7.3 °F /  -13.7 °C 29.95in /  1014.1hPa Calm     85% 0.00in /  0mm
00:35 10.8 °F /  -11.8 °C 7.2 °F /  -13.8 °C 29.95in /  1014.1hPa Calm     85% 0.00in /  0mm
00:44 10.7 °F /  -11.8 °C 7.1 °F /  -13.8 °C 29.94in /  1013.8hPa Calm     85% 0.00in /  0mm
00:49 10.9 °F /  -11.7 °C 7.3 °F /  -13.7 °C 29.94in /  1013.8hPa Calm     85% 0.00in /  0mm
00:55 10.8 °F /  -11.8 °C 7.2 °F /  -13.8 °C 29.93in /  1013.4hPa Calm     85% 0.00in /  0mm
00:59 10.8 °F /  -11.8 °C 7.2 °F /  -13.8 °C 29.93in /  1013.4hPa Calm     85% 0.00in /  0mm
01:05 10.8 °F /  -11.8 °C 7.2 °F /  -13.8 °C 29.93in /  1013.4hPa Calm     85% 0.00in /  0mm
01:09 11.3 °F /  -11.5 °C 7.7 °F /  -13.5 °C 29.93in /  1013.4hPa Calm     85% 0.00in /  0mm
01:14 11.3 °F /  -11.5 °C 7.7 °F /  -13.5 °C 29.92in /  1013.1hPa Calm     85% 0.00in /  0mm
01:19 11.0 °F /  -11.7 °C 7.1 °F /  -13.8 °C 29.93in /  1013.4hPa Calm     84% 0.00in /  0mm
01:24 10.6 °F /  -11.9 °C 6.7 °F /  -14.1 °C 29.92in /  1013.1hPa Calm   1.0mph /  1.6km/h 84% 0.00in /  0mm
01:29 10.3 °F /  -12.1 °C 6.4 °F /  -14.2 °C 29.92in /  1013.1hPa Calm   1.0mph /  1.6km/h 84% 0.00in /  0mm
01:34 10.0 °F /  -12.2 °C 6.1 °F /  -14.4 °C 29.91in /  1012.8hPa Calm   2.0mph /  3.2km/h 84% 0.00in /  0mm
01:40 10.0 °F /  -12.2 °C 6.1 °F /  -14.4 °C 29.91in /  1012.8hPa Calm   2.0mph /  3.2km/h 84% 0.00in /  0mm
01:44 10.0 °F /  -12.2 °C 6.1 °F /  -14.4 °C 29.91in /  1012.8hPa Calm   2.0mph /  3.2km/h 84% 0.00in /  0mm
01:49 10.0 °F /  -12.2 °C 6.4 °F /  -14.2 °C 29.91in /  1012.8hPa Calm   1.0mph /  1.6km/h 85% 0.00in /  0mm
01:55 10.3 °F /  -12.1 °C 6.7 °F /  -14.1 °C 29.91in /  1012.8hPa Calm   1.0mph /  1.6km/h 85% 0.00in /  0mm
02:04 10.9 °F /  -11.7 °C 7.3 °F /  -13.7 °C 29.91in /  1012.8hPa Calm   2.0mph /  3.2km/h 85% 0.00in /  0mm
02:09 11.1 °F /  -11.6 °C 7.5 °F /  -13.6 °C 29.90in /  1012.4hPa Calm   2.0mph /  3.2km/h 85% 0.00in /  0mm
02:14 10.8 °F /  -11.8 °C 6.9 °F /  -13.9 °C 29.90in /  1012.4hPa Calm   1.0mph /  1.6km/h 84% 0.00in /  0mm
02:19 10.4 °F /  -12 °C 6.5 °F /  -14.2 °C 29.90in /  1012.4hPa Calm   1.0mph /  1.6km/h 84% 0.00in /  0mm
02:24 10.2 °F /  -12.1 °C 6.3 °F /  -14.3 °C 29.89in /  1012.1hPa Calm     84% 0.00in /  0mm
02:29 10.1 °F /  -12.2 °C 6.2 °F /  -14.3 °C 29.89in /  1012.1hPa Calm     84% 0.00in /  0mm
02:34 10.3 °F /  -12.1 °C 6.7 °F /  -14.1 °C 29.88in /  1011.7hPa Calm   1.0mph /  1.6km/h 85% 0.00in /  0mm
02:39 10.5 °F /  -11.9 °C 6.9 °F /  -13.9 °C 29.88in /  1011.7hPa Calm   1.0mph /  1.6km/h 85% 0.00in /  0mm
02:44 10.6 °F /  -11.9 °C 7.0 °F /  -13.9 °C 29.88in /  1011.7hPa Calm   1.0mph /  1.6km/h 85% 0.00in /  0mm
02:49 10.7 °F /  -11.8 °C 7.1 °F /  -13.8 °C 29.88in /  1011.7hPa Calm   1.0mph /  1.6km/h 85% 0.00in /  0mm
02:54 10.8 °F /  -11.8 °C 7.2 °F /  -13.8 °C 29.87in /  1011.4hPa Calm     85% 0.00in /  0mm
02:59 11.1 °F /  -11.6 °C 7.5 °F /  -13.6 °C 29.88in /  1011.7hPa Calm   1.0mph /  1.6km/h 85% 0.00in /  0mm
03:04 11.4 °F /  -11.4 °C 8.0 °F /  -13.3 °C 29.88in /  1011.7hPa Calm   1.0mph /  1.6km/h 86% 0.00in /  0mm
03:09 11.7 °F /  -11.3 °C 8.3 °F /  -13.2 °C 29.88in /  1011.7hPa Calm     86% 0.00in /  0mm
03:14 12.1 °F /  -11.1 °C 8.7 °F /  -12.9 °C 29.88in /  1011.7hPa Calm     86% 0.00in /  0mm
03:19 12.3 °F /  -10.9 °C 8.9 °F /  -12.8 °C 29.87in /  1011.4hPa Calm     86% 0.00in /  0mm
03:24 12.5 °F /  -10.8 °C 9.1 °F /  -12.7 °C 29.86in /  1011.1hPa Calm   2.0mph /  3.2km/h 86% 0.00in /  0mm
03:29 12.6 °F /  -10.8 °C 8.9 °F /  -12.8 °C 29.85in /  1010.7hPa Calm   3.0mph /  4.8km/h 85% 0.00in /  0mm
03:35 12.6 °F /  -10.8 °C 8.9 °F /  -12.8 °C 29.84in /  1010.4hPa Calm   3.0mph /  4.8km/h 85% 0.00in /  0mm
03:39 12.6 °F /  -10.8 °C 8.9 °F /  -12.8 °C 29.83in /  1010hPa Calm   1.0mph /  1.6km/h 85% 0.00in /  0mm
03:44 12.7 °F /  -10.7 °C 9.0 °F /  -12.8 °C 29.83in /  1010hPa Calm   2.0mph /  3.2km/h 85% 0.00in /  0mm
03:49 12.9 °F /  -10.6 °C 9.2 °F /  -12.7 °C 29.81in /  1009.4hPa Calm   2.0mph /  3.2km/h 85% 0.00in /  0mm
03:54 13.2 °F /  -10.4 °C 9.5 °F /  -12.5 °C 29.81in /  1009.4hPa Calm   3.0mph /  4.8km/h 85% 0.00in /  0mm
03:59 13.5 °F /  -10.3 °C 9.8 °F /  -12.3 °C 29.81in /  1009.4hPa Calm   3.0mph /  4.8km/h 85% 0.00in /  0mm
04:04 13.8 °F /  -10.1 °C 10.1 °F /  -12.2 °C 29.81in /  1009.4hPa Calm   2.0mph /  3.2km/h 85% 0.00in /  0mm
04:09 14.1 °F /  -9.9 °C 10.2 °F /  -12.1 °C 29.81in /  1009.4hPa Calm   4.0mph /  6.4km/h 84% 0.00in /  0mm
04:14 14.4 °F /  -9.8 °C 10.5 °F /  -11.9 °C 29.81in /  1009.4hPa Calm   4.0mph /  6.4km/h 84% 0.00in /  0mm
04:19 14.6 °F /  -9.7 °C 10.4 °F /  -12 °C 29.81in /  1009.4hPa Calm   4.0mph /  6.4km/h 83% 0.00in /  0mm
04:24 14.8 °F /  -9.6 °C 10.6 °F /  -11.9 °C 29.81in /  1009.4hPa NE 1.0mph /  1.6km/h 3.0mph /  4.8km/h 83% 0.00in /  0mm
04:29 15.0 °F /  -9.4 °C 10.8 °F /  -11.8 °C 29.81in /  1009.4hPa Calm   4.0mph /  6.4km/h 83% 0.00in /  0mm
04:34 15.2 °F /  -9.3 °C 10.7 °F /  -11.8 °C 29.81in /  1009.4hPa Calm   4.0mph /  6.4km/h 82% 0.00in /  0mm
04:39 15.3 °F /  -9.3 °C 11.1 °F /  -11.6 °C 29.80in /  1009hPa NE 1.0mph /  1.6km/h 3.0mph /  4.8km/h 83% 0.00in /  0mm
04:44 15.3 °F /  -9.3 °C 11.1 °F /  -11.6 °C 29.80in /  1009hPa Calm   3.0mph /  4.8km/h 83% 0.00in /  0mm
04:49 15.5 °F /  -9.2 °C 11.0 °F /  -11.7 °C 29.80in /  1009hPa Calm   3.0mph /  4.8km/h 82% 0.00in /  0mm
04:55 15.6 °F /  -9.1 °C 11.1 °F /  -11.6 °C 29.80in /  1009hPa Calm   3.0mph /  4.8km/h 82% 0.00in /  0mm
05:04 15.7 °F /  -9.1 °C 11.2 °F /  -11.6 °C 29.79in /  1008.7hPa Calm   2.0mph /  3.2km/h 82% 0.00in /  0mm
05:09 15.7 °F /  -9.1 °C 11.2 °F /  -11.6 °C 29.78in /  1008.4hPa Calm   2.0mph /  3.2km/h 82% 0.00in /  0mm
05:14 15.6 °F /  -9.1 °C 11.1 °F /  -11.6 °C 29.77in /  1008hPa Calm   1.0mph /  1.6km/h 82% 0.00in /  0mm
05:20 15.5 °F /  -9.2 °C 11.0 °F /  -11.7 °C 29.77in /  1008hPa Calm   1.0mph /  1.6km/h 82% 0.00in /  0mm
05:30 15.8 °F /  -9 °C 11.3 °F /  -11.5 °C 29.76in /  1007.7hPa Calm   5.0mph /  8km/h 82% 0.00in /  0mm
05:34 15.9 °F /  -8.9 °C 11.7 °F /  -11.3 °C 29.76in /  1007.7hPa Calm   5.0mph /  8km/h 83% 0.00in /  0mm
05:39 16.1 °F /  -8.8 °C 11.9 °F /  -11.2 °C 29.76in /  1007.7hPa Calm   3.0mph /  4.8km/h 83% 0.00in /  0mm
05:44 16.2 °F /  -8.8 °C 11.9 °F /  -11.2 °C 29.76in /  1007.7hPa Calm   3.0mph /  4.8km/h 83% 0.00in /  0mm
05:49 16.2 °F /  -8.8 °C 11.7 °F /  -11.3 °C 29.76in /  1007.7hPa Calm   6.0mph /  9.7km/h 82% 0.00in /  0mm
05:55 16.2 °F /  -8.8 °C 11.7 °F /  -11.3 °C 29.75in /  1007.3hPa NE 1.0mph /  1.6km/h 6.0mph /  9.7km/h 82% 0.00in /  0mm
06:04 16.3 °F /  -8.7 °C 11.5 °F /  -11.4 °C 29.75in /  1007.3hPa NE 1.0mph /  1.6km/h 7.0mph /  11.3km/h 81% 0.00in /  0mm
06:09 16.2 °F /  -8.8 °C 11.4 °F /  -11.4 °C 29.74in /  1007hPa Calm   4.0mph /  6.4km/h 81% 0.00in /  0mm
06:14 16.1 °F /  -8.8 °C 11.3 °F /  -11.5 °C 29.74in /  1007hPa NNE 2.0mph /  3.2km/h 5.0mph /  8km/h 81% 0.00in /  0mm
06:19 16.0 °F /  -8.9 °C 11.2 °F /  -11.6 °C 29.74in /  1007hPa NNE 2.0mph /  3.2km/h 5.0mph /  8km/h 81% 0.00in /  0mm
06:24 15.9 °F /  -8.9 °C 11.1 °F /  -11.6 °C 29.74in /  1007hPa Calm   5.0mph /  8km/h 81% 0.00in /  0mm
06:30 15.8 °F /  -9 °C 11.0 °F /  -11.7 °C 29.74in /  1007hPa Calm   4.0mph /  6.4km/h 81% 0.00in /  0mm
06:34 15.6 °F /  -9.1 °C 10.8 °F /  -11.8 °C 29.75in /  1007.3hPa Calm   2.0mph /  3.2km/h 81% 0.00in /  0mm
06:39 15.4 °F /  -9.2 °C 10.6 °F /  -11.9 °C 29.74in /  1007hPa Calm   2.0mph /  3.2km/h 81% 0.00in /  0mm
06:44 15.1 °F /  -9.4 °C 10.3 °F /  -12.1 °C 29.74in /  1007hPa NNE 1.0mph /  1.6km/h 2.0mph /  3.2km/h 81% 0.00in /  0mm
06:49 14.9 °F /  -9.5 °C 10.1 °F /  -12.2 °C 29.74in /  1007hPa Calm   2.0mph /  3.2km/h 81% 0.00in /  0mm
06:54 14.8 °F /  -9.6 °C 10.0 °F /  -12.2 °C 29.74in /  1007hPa NNE 1.0mph /  1.6km/h 3.0mph /  4.8km/h 81% 0.00in /  0mm
06:59 14.6 °F /  -9.7 °C 10.1 °F /  -12.2 °C 29.74in /  1007hPa Calm   4.0mph /  6.4km/h 82% 0.00in /  0mm
07:04 14.6 °F /  -9.7 °C 10.1 °F /  -12.2 °C 29.74in /  1007hPa Calm   4.0mph /  6.4km/h 82% 0.00in /  0mm
07:09 14.6 °F /  -9.7 °C 10.1 °F /  -12.2 °C 29.73in /  1006.7hPa Calm   3.0mph /  4.8km/h 82% 0.00in /  0mm
07:14 14.5 °F /  -9.7 °C 10.0 °F /  -12.2 °C 29.73in /  1006.7hPa Calm   3.0mph /  4.8km/h 82% 0.00in /  0mm
07:19 14.4 °F /  -9.8 °C 9.9 °F /  -12.3 °C 29.73in /  1006.7hPa Calm   2.0mph /  3.2km/h 82% 0.00in /  0mm
07:24 14.3 °F /  -9.8 °C 9.8 °F /  -12.3 °C 29.73in /  1006.7hPa Calm   3.0mph /  4.8km/h 82% 0.00in /  0mm
07:29 14.3 °F /  -9.8 °C 9.8 °F /  -12.3 °C 29.73in /  1006.7hPa Calm   3.0mph /  4.8km/h 82% 0.00in /  0mm
07:34 14.3 °F /  -9.8 °C 10.1 °F /  -12.2 °C 29.72in /  1006.3hPa Calm   2.0mph /  3.2km/h 83% 0.00in /  0mm
07:39 14.5 °F /  -9.7 °C 10.3 °F /  -12.1 °C 29.72in /  1006.3hPa Calm   2.0mph /  3.2km/h 83% 0.00in /  0mm
07:44 14.6 °F /  -9.7 °C 10.4 °F /  -12 °C 29.72in /  1006.3hPa Calm   5.0mph /  8km/h 83% 0.00in /  0mm
07:49 14.8 °F /  -9.6 °C 10.6 °F /  -11.9 °C 29.72in /  1006.3hPa Calm   5.0mph /  8km/h 83% 0.00in /  0mm
07:54 14.8 °F /  -9.6 °C 10.3 °F /  -12.1 °C 29.71in /  1006hPa NNW 2.0mph /  3.2km/h 5.0mph /  8km/h 82% 0.00in /  0mm
07:59 14.7 °F /  -9.6 °C 10.2 °F /  -12.1 °C 29.71in /  1006hPa NNW 1.0mph /  1.6km/h 4.0mph /  6.4km/h 82% 0.00in /  0mm
08:04 14.5 °F /  -9.7 °C 9.7 °F /  -12.4 °C 29.71in /  1006hPa Calm   4.0mph /  6.4km/h 81% 0.00in /  0mm
08:09 14.4 °F /  -9.8 °C 9.6 °F /  -12.4 °C 29.71in /  1006hPa Calm   4.0mph /  6.4km/h 81% 0.00in /  0mm
08:14 14.2 °F /  -9.9 °C 9.7 °F /  -12.4 °C 29.71in /  1006hPa NNW 1.0mph /  1.6km/h 3.0mph /  4.8km/h 82% 0.00in /  0mm
08:19 14.0 °F /  -10 °C 9.5 °F /  -12.5 °C 29.71in /  1006hPa NNW 1.0mph /  1.6km/h 3.0mph /  4.8km/h 82% 0.00in /  0mm
08:24 13.6 °F /  -10.2 °C 9.1 °F /  -12.7 °C 29.71in /  1006hPa NW 1.0mph /  1.6km/h 3.0mph /  4.8km/h 82% 0.00in /  0mm
08:30 13.5 °F /  -10.3 °C 9.0 °F /  -12.8 °C 29.71in /  1006hPa Calm   3.0mph /  4.8km/h 82% 0.00in /  0mm
08:34 13.4 °F /  -10.3 °C 8.9 °F /  -12.8 °C 29.71in /  1006hPa NW 1.0mph /  1.6km/h 4.0mph /  6.4km/h 82% 0.00in /  0mm
08:39 13.2 °F /  -10.4 °C 9.0 °F /  -12.8 °C 29.71in /  1006hPa NNW 1.0mph /  1.6km/h 4.0mph /  6.4km/h 83% 0.00in /  0mm
08:44 13.2 °F /  -10.4 °C 9.0 °F /  -12.8 °C 29.72in /  1006.3hPa NNW 1.0mph /  1.6km/h 4.0mph /  6.4km/h 83% 0.00in /  0mm
08:49 13.0 °F /  -10.6 °C 8.8 °F /  -12.9 °C 29.72in /  1006.3hPa WNW 3.0mph /  4.8km/h 4.0mph /  6.4km/h 83% 0.00in /  0mm
08:54 12.7 °F /  -10.7 °C 8.5 °F /  -13.1 °C 29.72in /  1006.3hPa NW 1.0mph /  1.6km/h 4.0mph /  6.4km/h 83% 0.00in /  0mm
08:59 12.6 °F /  -10.8 °C 8.7 °F /  -12.9 °C 29.72in /  1006.3hPa Calm   4.0mph /  6.4km/h 84% 0.00in /  0mm
09:04 12.6 °F /  -10.8 °C 8.7 °F /  -12.9 °C 29.73in /  1006.7hPa NW 1.0mph /  1.6km/h 4.0mph /  6.4km/h 84% 0.00in /  0mm
09:09 12.6 °F /  -10.8 °C 8.7 °F /  -12.9 °C 29.73in /  1006.7hPa Calm   4.0mph /  6.4km/h 84% 0.00in /  0mm
09:14 12.6 °F /  -10.8 °C 8.7 °F /  -12.9 °C 29.73in /  1006.7hPa NW 1.0mph /  1.6km/h 3.0mph /  4.8km/h 84% 0.00in /  0mm
09:19 12.6 °F /  -10.8 °C 8.7 °F /  -12.9 °C 29.73in /  1006.7hPa Calm   3.0mph /  4.8km/h 84% 0.00in /  0mm
09:24 12.7 °F /  -10.7 °C 8.8 °F /  -12.9 °C 29.73in /  1006.7hPa Calm   3.0mph /  4.8km/h 84% 0.00in /  0mm
09:30 12.8 °F /  -10.7 °C 8.9 °F /  -12.8 °C 29.73in /  1006.7hPa Calm   2.0mph /  3.2km/h 84% 0.00in /  0mm
09:34 13.0 °F /  -10.6 °C 9.1 °F /  -12.7 °C 29.73in /  1006.7hPa Calm   2.0mph /  3.2km/h 84% 0.00in /  0mm
09:39 13.1 °F /  -10.5 °C 9.2 °F /  -12.7 °C 29.72in /  1006.3hPa Calm   2.0mph /  3.2km/h 84% 0.00in /  0mm
09:44 13.2 °F /  -10.4 °C 9.3 °F /  -12.6 °C 29.72in /  1006.3hPa Calm   3.0mph /  4.8km/h 84% 0.00in /  0mm
09:49 13.3 °F /  -10.4 °C 9.4 °F /  -12.6 °C 29.72in /  1006.3hPa NW 1.0mph /  1.6km/h 3.0mph /  4.8km/h 84% 0.00in /  0mm
09:54 13.5 °F /  -10.3 °C 9.6 °F /  -12.4 °C 29.72in /  1006.3hPa Calm   2.0mph /  3.2km/h 84% 0.00in /  0mm
09:59 13.6 °F /  -10.2 °C 9.7 °F /  -12.4 °C 29.72in /  1006.3hPa Calm   1.0mph /  1.6km/h 84% 0.00in /  0mm
10:04 13.7 °F /  -10.2 °C 9.8 °F /  -12.3 °C 29.72in /  1006.3hPa NW 1.0mph /  1.6km/h 3.0mph /  4.8km/h 84% 0.00in /  0mm
10:09 13.6 °F /  -10.2 °C 11.7 °F /  -11.3 °C 29.72in /  1006.3hPa NW 1.0mph /  1.6km/h 5.0mph /  8km/h 92% 0.00in /  0mm
10:14 13.7 °F /  -10.2 °C 9.8 °F /  -12.3 °C 29.72in /  1006.3hPa Calm   5.0mph /  8km/h 84% 0.00in /  0mm
10:19 13.8 °F /  -10.1 °C 9.9 °F /  -12.3 °C 29.72in /  1006.3hPa Calm   2.0mph /  3.2km/h 84% 0.00in /  0mm
10:24 13.9 °F /  -10.1 °C 10.0 °F /  -12.2 °C 29.72in /  1006.3hPa NNE 1.0mph /  1.6km/h 4.0mph /  6.4km/h 84% 0.00in /  0mm
10:29 14.1 °F /  -9.9 °C 10.2 °F /  -12.1 °C 29.72in /  1006.3hPa NNE 2.0mph /  3.2km/h 6.0mph /  9.7km/h 84% 0.00in /  0mm
10:34 14.2 °F /  -9.9 °C 10.5 °F /  -11.9 °C 29.71in /  1006hPa NNE 1.0mph /  1.6km/h 7.0mph /  11.3km/h 85% 0.00in /  0mm
10:39 14.3 °F /  -9.8 °C 10.6 °F /  -11.9 °C 29.71in /  1006hPa NNE 1.0mph /  1.6km/h 7.0mph /  11.3km/h 85% 0.00in /  0mm
10:44 14.4 °F /  -9.8 °C 10.7 °F /  -11.8 °C 29.71in /  1006hPa NNE 2.0mph /  3.2km/h 5.0mph /  8km/h 85% 0.00in /  0mm
10:49 14.5 °F /  -9.7 °C 10.8 °F /  -11.8 °C 29.71in /  1006hPa NNE 2.0mph /  3.2km/h 6.0mph /  9.7km/h 85% 0.00in /  0mm
10:54 14.5 °F /  -9.7 °C 10.8 °F /  -11.8 °C 29.71in /  1006hPa NE 2.0mph /  3.2km/h 7.0mph /  11.3km/h 85% 0.00in /  0mm
10:59 14.6 °F /  -9.7 °C 10.9 °F /  -11.7 °C 29.70in /  1005.6hPa NNE 2.0mph /  3.2km/h 8.0mph /  12.9km/h 85% 0.00in /  0mm
11:04 14.8 °F /  -9.6 °C 11.1 °F /  -11.6 °C 29.70in /  1005.6hPa NNE 2.0mph /  3.2km/h 9.0mph /  14.5km/h 85% 0.00in /  0mm
11:09 14.9 °F /  -9.5 °C 11.2 °F /  -11.6 °C 29.70in /  1005.6hPa NNE 1.0mph /  1.6km/h 9.0mph /  14.5km/h 85% 0.00in /  0mm
11:14 15.1 °F /  -9.4 °C 11.4 °F /  -11.4 °C 29.69in /  1005.3hPa NNE 2.0mph /  3.2km/h 9.0mph /  14.5km/h 85% 0.00in /  0mm
11:19 15.3 °F /  -9.3 °C 11.9 °F /  -11.2 °C 29.69in /  1005.3hPa NE 2.0mph /  3.2km/h 10.0mph /  16.1km/h 86% 0.00in /  0mm
11:24 15.5 °F /  -9.2 °C 12.1 °F /  -11.1 °C 29.69in /  1005.3hPa NNE 3.0mph /  4.8km/h 10.0mph /  16.1km/h 86% 0.00in /  0mm
11:29 15.7 °F /  -9.1 °C 12.3 °F /  -10.9 °C 29.69in /  1005.3hPa NNE 2.0mph /  3.2km/h 11.0mph /  17.7km/h 86% 0.00in /  0mm
11:34 16.0 °F /  -8.9 °C 12.6 °F /  -10.8 °C 29.69in /  1005.3hPa NNE 2.0mph /  3.2km/h 11.0mph /  17.7km/h 86% 0.00in /  0mm
11:39 16.1 °F /  -8.8 °C 12.7 °F /  -10.7 °C 29.69in /  1005.3hPa NNE 1.0mph /  1.6km/h 7.0mph /  11.3km/h 86% 0.00in /  0mm
11:44 16.3 °F /  -8.7 °C 12.9 °F /  -10.6 °C 29.69in /  1005.3hPa NNE 3.0mph /  4.8km/h 7.0mph /  11.3km/h 86% 0.00in /  0mm
11:49 16.4 °F /  -8.7 °C 12.9 °F /  -10.6 °C 29.69in /  1005.3hPa NNE 3.0mph /  4.8km/h 10.0mph /  16.1km/h 86% 0.00in /  0mm
11:54 16.6 °F /  -8.6 °C 13.1 °F /  -10.5 °C 29.69in /  1005.3hPa North 2.0mph /  3.2km/h 10.0mph /  16.1km/h 86% 0.00in /  0mm
11:59 16.8 °F /  -8.4 °C 13.3 °F /  -10.4 °C 29.68in /  1005hPa NNE 3.0mph /  4.8km/h 12.0mph /  19.3km/h 86% 0.00in /  0mm
12:04 16.9 °F /  -8.4 °C 13.4 °F /  -10.3 °C 29.68in /  1005hPa NNE 4.0mph /  6.4km/h 13.0mph /  20.9km/h 86% 0.00in /  0mm
12:09 17.1 °F /  -8.3 °C 13.6 °F /  -10.2 °C 29.68in /  1005hPa Calm   13.0mph /  20.9km/h 86% 0.00in /  0mm
12:14 17.2 °F /  -8.2 °C 13.7 °F /  -10.2 °C 29.68in /  1005hPa North 3.0mph /  4.8km/h 10.0mph /  16.1km/h 86% 0.00in /  0mm
12:19 17.3 °F /  -8.2 °C 13.8 °F /  -10.1 °C 29.68in /  1005hPa NNE 4.0mph /  6.4km/h 13.0mph /  20.9km/h 86% 0.00in /  0mm
12:24 17.4 °F /  -8.1 °C 13.9 °F /  -10.1 °C 29.68in /  1005hPa NNE 1.0mph /  1.6km/h 13.0mph /  20.9km/h 86% 0.00in /  0mm
12:29 17.5 °F /  -8.1 °C 14.0 °F /  -10 °C 29.68in /  1005hPa NNE 1.0mph /  1.6km/h 13.0mph /  20.9km/h 86% 0.00in /  0mm
12:34 17.6 °F /  -8 °C 14.1 °F /  -9.9 °C 29.68in /  1005hPa North 3.0mph /  4.8km/h 13.0mph /  20.9km/h 86% 0.00in /  0mm
12:39 17.6 °F /  -8 °C 14.1 °F /  -9.9 °C 29.68in /  1005hPa North 2.0mph /  3.2km/h 11.0mph /  17.7km/h 86% 0.00in /  0mm
12:44 17.6 °F /  -8 °C 14.1 °F /  -9.9 °C 29.68in /  1005hPa Calm   10.0mph /  16.1km/h 86% 0.00in /  0mm
12:49 17.5 °F /  -8.1 °C 14.0 °F /  -10 °C 29.67in /  1004.6hPa North 3.0mph /  4.8km/h 8.0mph /  12.9km/h 86% 0.00in /  0mm
12:54 17.3 °F /  -8.2 °C 13.8 °F /  -10.1 °C 29.67in /  1004.6hPa North 1.0mph /  1.6km/h 8.0mph /  12.9km/h 86% 0.00in /  0mm
12:59 17.3 °F /  -8.2 °C 13.8 °F /  -10.1 °C 29.67in /  1004.6hPa NNE 2.0mph /  3.2km/h 8.0mph /  12.9km/h 86% 0.00in /  0mm
13:04 17.2 °F /  -8.2 °C 13.7 °F /  -10.2 °C 29.67in /  1004.6hPa NNE 4.0mph /  6.4km/h 11.0mph /  17.7km/h 86% 0.00in /  0mm
13:09 17.2 °F /  -8.2 °C 13.7 °F /  -10.2 °C 29.67in /  1004.6hPa NNE 2.0mph /  3.2km/h 11.0mph /  17.7km/h 86% 0.00in /  0mm
13:14 17.2 °F /  -8.2 °C 13.7 °F /  -10.2 °C 29.67in /  1004.6hPa NNE 1.0mph /  1.6km/h 7.0mph /  11.3km/h 86% 0.00in /  0mm
13:19 17.2 °F /  -8.2 °C 13.7 °F /  -10.2 °C 29.67in /  1004.6hPa North 1.0mph /  1.6km/h 9.0mph /  14.5km/h 86% 0.00in /  0mm
13:24 17.3 °F /  -8.2 °C 13.8 °F /  -10.1 °C 29.67in /  1004.6hPa North 3.0mph /  4.8km/h 10.0mph /  16.1km/h 86% 0.00in /  0mm
13:29 17.3 °F /  -8.2 °C 13.8 °F /  -10.1 °C 29.67in /  1004.6hPa NNE 3.0mph /  4.8km/h 10.0mph /  16.1km/h 86% 0.00in /  0mm
13:34 17.2 °F /  -8.2 °C 13.7 °F /  -10.2 °C 29.67in /  1004.6hPa NNE 4.0mph /  6.4km/h 10.0mph /  16.1km/h 86% 0.00in /  0mm
13:39 17.2 °F /  -8.2 °C 13.7 °F /  -10.2 °C 29.67in /  1004.6hPa NNE 2.0mph /  3.2km/h 10.0mph /  16.1km/h 86% 0.00in /  0mm
13:44 17.2 °F /  -8.2 °C 13.7 °F /  -10.2 °C 29.67in /  1004.6hPa North 3.0mph /  4.8km/h 11.0mph /  17.7km/h 86% 0.00in /  0mm
13:49 17.3 °F /  -8.2 °C 13.8 °F /  -10.1 °C 29.67in /  1004.6hPa NNE 6.0mph /  9.7km/h 11.0mph /  17.7km/h 86% 0.00in /  0mm
13:54 17.3 °F /  -8.2 °C 13.8 °F /  -10.1 °C 29.67in /  1004.6hPa North 3.0mph /  4.8km/h 12.0mph /  19.3km/h 86% 0.00in /  0mm
13:59 17.3 °F /  -8.2 °C 13.8 °F /  -10.1 °C 29.67in /  1004.6hPa NNE 2.0mph /  3.2km/h 12.0mph /  19.3km/h 86% 0.00in /  0mm
14:04 17.4 °F /  -8.1 °C 13.9 °F /  -10.1 °C 29.67in /  1004.6hPa North 2.0mph /  3.2km/h 7.0mph /  11.3km/h 86% 0.00in /  0mm
14:09 17.5 °F /  -8.1 °C 14.0 °F /  -10 °C 29.67in /  1004.6hPa North 4.0mph /  6.4km/h 11.0mph /  17.7km/h 86% 0.00in /  0mm
14:14 17.5 °F /  -8.1 °C 14.0 °F /  -10 °C 29.67in /  1004.6hPa North 4.0mph /  6.4km/h 13.0mph /  20.9km/h 86% 0.00in /  0mm
14:19 17.5 °F /  -8.1 °C 14.0 °F /  -10 °C 29.67in /  1004.6hPa North 3.0mph /  4.8km/h 13.0mph /  20.9km/h 86% 0.00in /  0mm
14:24 17.6 °F /  -8 °C 14.1 °F /  -9.9 °C 29.67in /  1004.6hPa North 2.0mph /  3.2km/h 10.0mph /  16.1km/h 86% 0.00in /  0mm
14:29 17.7 °F /  -7.9 °C 14.2 °F /  -9.9 °C 29.67in /  1004.6hPa North 2.0mph /  3.2km/h 12.0mph /  19.3km/h 86% 0.00in /  0mm
14:34 17.7 °F /  -7.9 °C 14.2 °F /  -9.9 °C 29.68in /  1005hPa NNE 5.0mph /  8km/h 12.0mph /  19.3km/h 86% 0.00in /  0mm
14:39 17.7 °F /  -7.9 °C 14.2 °F /  -9.9 °C 29.68in /  1005hPa North 2.0mph /  3.2km/h 12.0mph /  19.3km/h 86% 0.00in /  0mm
14:44 17.7 °F /  -7.9 °C 14.2 °F /  -9.9 °C 29.68in /  1005hPa NNE 4.0mph /  6.4km/h 15.0mph /  24.1km/h 86% 0.00in /  0mm
14:49 17.7 °F /  -7.9 °C 14.2 °F /  -9.9 °C 29.68in /  1005hPa North 4.0mph /  6.4km/h 15.0mph /  24.1km/h 86% 0.00in /  0mm
14:54 17.8 °F /  -7.9 °C 14.3 °F /  -9.8 °C 29.68in /  1005hPa North 3.0mph /  4.8km/h 13.0mph /  20.9km/h 86% 0.00in /  0mm
14:59 17.9 °F /  -7.8 °C 14.4 °F /  -9.8 °C 29.69in /  1005.3hPa NNE 4.0mph /  6.4km/h 10.0mph /  16.1km/h 86% 0.00in /  0mm
15:04 17.9 °F /  -7.8 °C 14.4 °F /  -9.8 °C 29.69in /  1005.3hPa North 5.0mph /  8km/h 11.0mph /  17.7km/h 86% 0.00in /  0mm
15:09 17.9 °F /  -7.8 °C 14.4 °F /  -9.8 °C 29.69in /  1005.3hPa NNE 4.0mph /  6.4km/h 11.0mph /  17.7km/h 86% 0.00in /  0mm
15:14 17.9 °F /  -7.8 °C 14.4 °F /  -9.8 °C 29.69in /  1005.3hPa North 3.0mph /  4.8km/h 11.0mph /  17.7km/h 86% 0.00in /  0mm
15:19 18.0 °F /  -7.8 °C 14.5 °F /  -9.7 °C 29.70in /  1005.6hPa North 3.0mph /  4.8km/h 11.0mph /  17.7km/h 86% 0.00in /  0mm
15:24 18.0 °F /  -7.8 °C 14.5 °F /  -9.7 °C 29.70in /  1005.6hPa North 4.0mph /  6.4km/h 10.0mph /  16.1km/h 86% 0.00in /  0mm
15:30 18.0 °F /  -7.8 °C 14.5 °F /  -9.7 °C 29.70in /  1005.6hPa North 3.0mph /  4.8km/h 12.0mph /  19.3km/h 86% 0.00in /  0mm
15:35 18.0 °F /  -7.8 °C 14.5 °F /  -9.7 °C 29.70in /  1005.6hPa North 3.0mph /  4.8km/h 12.0mph /  19.3km/h 86% 0.00in /  0mm
15:44 18.1 °F /  -7.7 °C 14.6 °F /  -9.7 °C 29.70in /  1005.6hPa North 2.0mph /  3.2km/h 8.0mph /  12.9km/h 86% 0.00in /  0mm
15:49 18.2 °F /  -7.7 °C 14.7 °F /  -9.6 °C 29.70in /  1005.6hPa North 4.0mph /  6.4km/h 10.0mph /  16.1km/h 86% 0.00in /  0mm
15:54 18.2 °F /  -7.7 °C 14.7 °F /  -9.6 °C 29.70in /  1005.6hPa North 5.0mph /  8km/h 10.0mph /  16.1km/h 86% 0.00in /  0mm
15:59 18.2 °F /  -7.7 °C 14.7 °F /  -9.6 °C 29.71in /  1006hPa North 4.0mph /  6.4km/h 11.0mph /  17.7km/h 86% 0.00in /  0mm
16:04 18.2 °F /  -7.7 °C 14.7 °F /  -9.6 °C 29.71in /  1006hPa North 4.0mph /  6.4km/h 11.0mph /  17.7km/h 86% 0.00in /  0mm
16:09 18.3 °F /  -7.6 °C 14.8 °F /  -9.6 °C 29.71in /  1006hPa North 4.0mph /  6.4km/h 14.0mph /  22.5km/h 86% 0.00in /  0mm
16:14 18.4 °F /  -7.6 °C 14.9 °F /  -9.5 °C 29.71in /  1006hPa North 4.0mph /  6.4km/h 14.0mph /  22.5km/h 86% 0.00in /  0mm
16:19 18.4 °F /  -7.6 °C 14.9 °F /  -9.5 °C 29.71in /  1006hPa North 2.0mph /  3.2km/h 14.0mph /  22.5km/h 86% 0.00in /  0mm
16:24 18.5 °F /  -7.5 °C 15.0 °F /  -9.4 °C 29.71in /  1006hPa North 3.0mph /  4.8km/h 11.0mph /  17.7km/h 86% 0.00in /  0mm
16:29 18.5 °F /  -7.5 °C 15.0 °F /  -9.4 °C 29.72in /  1006.3hPa North 4.0mph /  6.4km/h 11.0mph /  17.7km/h 86% 0.00in /  0mm
16:34 18.5 °F /  -7.5 °C 15.0 °F /  -9.4 °C 29.72in /  1006.3hPa North 4.0mph /  6.4km/h 14.0mph /  22.5km/h 86% 0.00in /  0mm
16:39 18.6 °F /  -7.4 °C 15.4 °F /  -9.2 °C 29.72in /  1006.3hPa North 4.0mph /  6.4km/h 14.0mph /  22.5km/h 87% 0.00in /  0mm
16:44 18.6 °F /  -7.4 °C 15.4 °F /  -9.2 °C 29.72in /  1006.3hPa North 5.0mph /  8km/h 13.0mph /  20.9km/h 87% 0.00in /  0mm
16:49 18.6 °F /  -7.4 °C 15.4 °F /  -9.2 °C 29.72in /  1006.3hPa North 7.0mph /  11.3km/h 18.0mph /  29km/h 87% 0.00in /  0mm
16:54 18.7 °F /  -7.4 °C 15.5 °F /  -9.2 °C 29.72in /  1006.3hPa NNE 4.0mph /  6.4km/h 18.0mph /  29km/h 87% 0.00in /  0mm
16:59 18.8 °F /  -7.3 °C 15.6 °F /  -9.1 °C 29.73in /  1006.7hPa North 4.0mph /  6.4km/h 13.0mph /  20.9km/h 87% 0.00in /  0mm
17:04 18.8 °F /  -7.3 °C 15.6 °F /  -9.1 °C 29.73in /  1006.7hPa North 4.0mph /  6.4km/h 12.0mph /  19.3km/h 87% 0.00in /  0mm
17:09 18.8 °F /  -7.3 °C 15.6 °F /  -9.1 °C 29.73in /  1006.7hPa North 4.0mph /  6.4km/h 9.0mph /  14.5km/h 87% 0.00in /  0mm
17:14 18.9 °F /  -7.3 °C 15.7 °F /  -9.1 °C 29.73in /  1006.7hPa NNE 3.0mph /  4.8km/h 10.0mph /  16.1km/h 87% 0.00in /  0mm
17:19 18.9 °F /  -7.3 °C 15.7 °F /  -9.1 °C 29.73in /  1006.7hPa NNE 2.0mph /  3.2km/h 10.0mph /  16.1km/h 87% 0.00in /  0mm
17:24 19.0 °F /  -7.2 °C 15.8 °F /  -9 °C 29.74in /  1007hPa NNE 5.0mph /  8km/h 12.0mph /  19.3km/h 87% 0.00in /  0mm
17:29 19.0 °F /  -7.2 °C 15.8 °F /  -9 °C 29.74in /  1007hPa NNE 5.0mph /  8km/h 16.0mph /  25.7km/h 87% 0.00in /  0mm
17:34 19.1 °F /  -7.2 °C 15.9 °F /  -8.9 °C 29.74in /  1007hPa NNE 3.0mph /  4.8km/h 16.0mph /  25.7km/h 87% 0.00in /  0mm
17:39 19.1 °F /  -7.2 °C 15.9 °F /  -8.9 °C 29.74in /  1007hPa North 4.0mph /  6.4km/h 11.0mph /  17.7km/h 87% 0.00in /  0mm
17:44 19.1 °F /  -7.2 °C 15.9 °F /  -8.9 °C 29.74in /  1007hPa NNE 2.0mph /  3.2km/h 11.0mph /  17.7km/h 87% 0.00in /  0mm
17:49 19.2 °F /  -7.1 °C 16.0 °F /  -8.9 °C 29.75in /  1007.3hPa North 5.0mph /  8km/h 14.0mph /  22.5km/h 87% 0.00in /  0mm
17:55 19.2 °F /  -7.1 °C 16.0 °F /  -8.9 °C 29.75in /  1007.3hPa North 2.0mph /  3.2km/h 14.0mph /  22.5km/h 87% 0.00in /  0mm
18:04 19.3 °F /  -7.1 °C 16.1 °F /  -8.8 °C 29.75in /  1007.3hPa North 3.0mph /  4.8km/h 14.0mph /  22.5km/h 87% 0.00in /  0mm
18:09 19.3 °F /  -7.1 °C 16.1 °F /  -8.8 °C 29.75in /  1007.3hPa North 3.0mph /  4.8km/h 14.0mph /  22.5km/h 87% 0.00in /  0mm
18:14 19.3 °F /  -7.1 °C 16.1 °F /  -8.8 °C 29.75in /  1007.3hPa North 2.0mph /  3.2km/h 14.0mph /  22.5km/h 87% 0.00in /  0mm
18:19 19.3 °F /  -7.1 °C 16.1 °F /  -8.8 °C 29.76in /  1007.7hPa NNE 1.0mph /  1.6km/h 9.0mph /  14.5km/h 87% 0.00in /  0mm
18:24 19.4 °F /  -7 °C 16.2 °F /  -8.8 °C 29.76in /  1007.7hPa North 2.0mph /  3.2km/h 12.0mph /  19.3km/h 87% 0.00in /  0mm
18:29 19.4 °F /  -7 °C 16.2 °F /  -8.8 °C 29.76in /  1007.7hPa NNE 3.0mph /  4.8km/h 12.0mph /  19.3km/h 87% 0.00in /  0mm
18:34 19.4 °F /  -7 °C 16.2 °F /  -8.8 °C 29.76in /  1007.7hPa North 2.0mph /  3.2km/h 10.0mph /  16.1km/h 87% 0.00in /  0mm
18:39 19.4 °F /  -7 °C 16.2 °F /  -8.8 °C 29.76in /  1007.7hPa NNE 3.0mph /  4.8km/h 8.0mph /  12.9km/h 87% 0.00in /  0mm
18:44 19.3 °F /  -7.1 °C 16.1 °F /  -8.8 °C 29.76in /  1007.7hPa North 2.0mph /  3.2km/h 10.0mph /  16.1km/h 87% 0.00in /  0mm
18:49 19.3 °F /  -7.1 °C 16.1 °F /  -8.8 °C 29.76in /  1007.7hPa North 2.0mph /  3.2km/h 16.0mph /  25.7km/h 87% 0.00in /  0mm
18:54 19.3 °F /  -7.1 °C 16.1 °F /  -8.8 °C 29.76in /  1007.7hPa NNE 4.0mph /  6.4km/h 16.0mph /  25.7km/h 87% 0.00in /  0mm
18:59 19.2 °F /  -7.1 °C 16.0 °F /  -8.9 °C 29.76in /  1007.7hPa North 2.0mph /  3.2km/h 13.0mph /  20.9km/h 87% 0.00in /  0mm
19:04 19.2 °F /  -7.1 °C 16.0 °F /  -8.9 °C 29.76in /  1007.7hPa North 1.0mph /  1.6km/h 11.0mph /  17.7km/h 87% 0.00in /  0mm
19:09 19.2 °F /  -7.1 °C 16.0 °F /  -8.9 °C 29.77in /  1008hPa North 3.0mph /  4.8km/h 10.0mph /  16.1km/h 87% 0.00in /  0mm
19:14 19.1 °F /  -7.2 °C 15.9 °F /  -8.9 °C 29.77in /  1008hPa North 4.0mph /  6.4km/h 11.0mph /  17.7km/h 87% 0.00in /  0mm
19:19 19.1 °F /  -7.2 °C 15.9 °F /  -8.9 °C 29.77in /  1008hPa NNW 2.0mph /  3.2km/h 11.0mph /  17.7km/h 87% 0.00in /  0mm
19:24 19.1 °F /  -7.2 °C 15.9 °F /  -8.9 °C 29.77in /  1008hPa North 2.0mph /  3.2km/h 12.0mph /  19.3km/h 87% 0.00in /  0mm
19:30 19.0 °F /  -7.2 °C 15.8 °F /  -9 °C 29.77in /  1008hPa North 4.0mph /  6.4km/h 13.0mph /  20.9km/h 87% 0.00in /  0mm
19:34 19.0 °F /  -7.2 °C 15.8 °F /  -9 °C 29.77in /  1008hPa North 6.0mph /  9.7km/h 13.0mph /  20.9km/h 87% 0.00in /  0mm
19:39 19.0 °F /  -7.2 °C 15.8 °F /  -9 °C 29.78in /  1008.4hPa North 2.0mph /  3.2km/h 11.0mph /  17.7km/h 87% 0.00in /  0mm
19:44 19.0 °F /  -7.2 °C 15.8 °F /  -9 °C 29.78in /  1008.4hPa NNW 4.0mph /  6.4km/h 9.0mph /  14.5km/h 87% 0.00in /  0mm
19:49 18.9 °F /  -7.3 °C 15.7 °F /  -9.1 °C 29.78in /  1008.4hPa North 4.0mph /  6.4km/h 10.0mph /  16.1km/h 87% 0.00in /  0mm
19:54 18.9 °F /  -7.3 °C 15.7 °F /  -9.1 °C 29.78in /  1008.4hPa North 4.0mph /  6.4km/h 11.0mph /  17.7km/h 87% 0.00in /  0mm
19:59 18.9 °F /  -7.3 °C 15.7 °F /  -9.1 °C 29.79in /  1008.7hPa North 3.0mph /  4.8km/h 11.0mph /  17.7km/h 87% 0.00in /  0mm
20:04 18.9 °F /  -7.3 °C 15.7 °F /  -9.1 °C 29.79in /  1008.7hPa North 3.0mph /  4.8km/h 7.0mph /  11.3km/h 87% 0.00in /  0mm
20:09 18.9 °F /  -7.3 °C 15.7 °F /  -9.1 °C 29.79in /  1008.7hPa NNE 2.0mph /  3.2km/h 7.0mph /  11.3km/h 87% 0.00in /  0mm
20:14 18.8 °F /  -7.3 °C 15.6 °F /  -9.1 °C 29.79in /  1008.7hPa North 2.0mph /  3.2km/h 9.0mph /  14.5km/h 87% 0.00in /  0mm
20:19 18.8 °F /  -7.3 °C 15.6 °F /  -9.1 °C 29.79in /  1008.7hPa NNE 2.0mph /  3.2km/h 10.0mph /  16.1km/h 87% 0.00in /  0mm
20:24 18.8 °F /  -7.3 °C 15.6 °F /  -9.1 °C 29.79in /  1008.7hPa North 3.0mph /  4.8km/h 10.0mph /  16.1km/h 87% 0.00in /  0mm
20:29 18.8 °F /  -7.3 °C 15.6 °F /  -9.1 °C 29.80in /  1009hPa NNW 3.0mph /  4.8km/h 16.0mph /  25.7km/h 87% 0.00in /  0mm
20:34 18.8 °F /  -7.3 °C 15.6 °F /  -9.1 °C 29.80in /  1009hPa North 2.0mph /  3.2km/h 16.0mph /  25.7km/h 87% 0.00in /  0mm
20:39 18.8 °F /  -7.3 °C 15.6 °F /  -9.1 °C 29.80in /  1009hPa NNE 1.0mph /  1.6km/h 10.0mph /  16.1km/h 87% 0.00in /  0mm
20:44 18.8 °F /  -7.3 °C 15.6 °F /  -9.1 °C 29.80in /  1009hPa North 3.0mph /  4.8km/h 13.0mph /  20.9km/h 87% 0.00in /  0mm
20:49 18.8 °F /  -7.3 °C 15.6 °F /  -9.1 °C 29.80in /  1009hPa NNE 3.0mph /  4.8km/h 13.0mph /  20.9km/h 87% 0.00in /  0mm
20:55 18.8 °F /  -7.3 °C 15.6 °F /  -9.1 °C 29.80in /  1009hPa NNE 2.0mph /  3.2km/h 10.0mph /  16.1km/h 87% 0.00in /  0mm
21:04 18.8 °F /  -7.3 °C 15.6 °F /  -9.1 °C 29.80in /  1009hPa North 3.0mph /  4.8km/h 10.0mph /  16.1km/h 87% 0.00in /  0mm
21:09 18.8 °F /  -7.3 °C 15.6 °F /  -9.1 °C 29.81in /  1009.4hPa North 2.0mph /  3.2km/h 10.0mph /  16.1km/h 87% 0.00in /  0mm
21:14 18.8 °F /  -7.3 °C 15.6 °F /  -9.1 °C 29.81in /  1009.4hPa North 4.0mph /  6.4km/h 9.0mph /  14.5km/h 87% 0.00in /  0mm
21:19 18.8 °F /  -7.3 °C 15.6 °F /  -9.1 °C 29.81in /  1009.4hPa NNE 3.0mph /  4.8km/h 10.0mph /  16.1km/h 87% 0.00in /  0mm
21:24 18.8 °F /  -7.3 °C 15.6 °F /  -9.1 °C 29.82in /  1009.7hPa NNE 3.0mph /  4.8km/h 11.0mph /  17.7km/h 87% 0.00in /  0mm
21:29 18.8 °F /  -7.3 °C 15.6 °F /  -9.1 °C 29.82in /  1009.7hPa North 3.0mph /  4.8km/h 11.0mph /  17.7km/h 87% 0.00in /  0mm
21:34 18.7 °F /  -7.4 °C 15.5 °F /  -9.2 °C 29.82in /  1009.7hPa NNE 2.0mph /  3.2km/h 11.0mph /  17.7km/h 87% 0.00in /  0mm
21:39 18.7 °F /  -7.4 °C 15.5 °F /  -9.2 °C 29.82in /  1009.7hPa North 4.0mph /  6.4km/h 8.0mph /  12.9km/h 87% 0.00in /  0mm
21:44 18.6 °F /  -7.4 °C 15.1 °F /  -9.4 °C 29.82in /  1009.7hPa North 4.0mph /  6.4km/h 12.0mph /  19.3km/h 86% 0.00in /  0mm
21:49 18.5 °F /  -7.5 °C 15.0 °F /  -9.4 °C 29.82in /  1009.7hPa North 3.0mph /  4.8km/h 12.0mph /  19.3km/h 86% 0.00in /  0mm
21:55 18.4 °F /  -7.6 °C 14.9 °F /  -9.5 °C 29.82in /  1009.7hPa North 2.0mph /  3.2km/h 10.0mph /  16.1km/h 86% 0.00in /  0mm
22:04 18.2 °F /  -7.7 °C 14.7 °F /  -9.6 °C 29.83in /  1010hPa North 3.0mph /  4.8km/h 9.0mph /  14.5km/h 86% 0.00in /  0mm
22:09 18.2 °F /  -7.7 °C 14.5 °F /  -9.7 °C 29.83in /  1010hPa North 4.0mph /  6.4km/h 10.0mph /  16.1km/h 85% 0.00in /  0mm
22:14 18.2 °F /  -7.7 °C 14.5 °F /  -9.7 °C 29.83in /  1010hPa NNE 5.0mph /  8km/h 12.0mph /  19.3km/h 85% 0.00in /  0mm
22:19 18.1 °F /  -7.7 °C 14.4 °F /  -9.8 °C 29.83in /  1010hPa North 1.0mph /  1.6km/h 12.0mph /  19.3km/h 85% 0.00in /  0mm
22:24 18.1 °F /  -7.7 °C 14.6 °F /  -9.7 °C 29.84in /  1010.4hPa North 2.0mph /  3.2km/h 6.0mph /  9.7km/h 86% 0.00in /  0mm
22:29 18.1 °F /  -7.7 °C 14.6 °F /  -9.7 °C 29.84in /  1010.4hPa NNE 1.0mph /  1.6km/h 6.0mph /  9.7km/h 86% 0.00in /  0mm
22:34 18.1 °F /  -7.7 °C 14.6 °F /  -9.7 °C 29.84in /  1010.4hPa NNW 3.0mph /  4.8km/h 6.0mph /  9.7km/h 86% 0.00in /  0mm
22:39 18.1 °F /  -7.7 °C 14.6 °F /  -9.7 °C 29.84in /  1010.4hPa North 2.0mph /  3.2km/h 6.0mph /  9.7km/h 86% 0.00in /  0mm
22:44 18.1 °F /  -7.7 °C 14.6 °F /  -9.7 °C 29.84in /  1010.4hPa North 3.0mph /  4.8km/h 8.0mph /  12.9km/h 86% 0.00in /  0mm
22:49 18.0 °F /  -7.8 °C 14.5 °F /  -9.7 °C 29.85in /  1010.7hPa North 3.0mph /  4.8km/h 8.0mph /  12.9km/h 86% 0.00in /  0mm
22:55 17.9 °F /  -7.8 °C 14.4 °F /  -9.8 °C 29.85in /  1010.7hPa North 2.0mph /  3.2km/h 12.0mph /  19.3km/h 86% 0.00in /  0mm
22:59 17.9 °F /  -7.8 °C 14.4 °F /  -9.8 °C 29.85in /  1010.7hPa North 4.0mph /  6.4km/h 12.0mph /  19.3km/h 86% 0.00in /  0mm
23:04 17.8 °F /  -7.9 °C 14.3 °F /  -9.8 °C 29.86in /  1011.1hPa NNE 2.0mph /  3.2km/h 11.0mph /  17.7km/h 86% 0.00in /  0mm
23:09 17.8 °F /  -7.9 °C 14.3 °F /  -9.8 °C 29.86in /  1011.1hPa NNE 2.0mph /  3.2km/h 8.0mph /  12.9km/h 86% 0.00in /  0mm
23:14 17.8 °F /  -7.9 °C 14.3 °F /  -9.8 °C 29.86in /  1011.1hPa North 1.0mph /  1.6km/h 8.0mph /  12.9km/h 86% 0.00in /  0mm
23:19 17.8 °F /  -7.9 °C 14.3 °F /  -9.8 °C 29.86in /  1011.1hPa North 4.0mph /  6.4km/h 8.0mph /  12.9km/h 86% 0.00in /  0mm
23:24 17.8 °F /  -7.9 °C 14.3 °F /  -9.8 °C 29.86in /  1011.1hPa North 1.0mph /  1.6km/h 6.0mph /  9.7km/h 86% 0.00in /  0mm
23:29 17.7 °F /  -7.9 °C 14.2 °F /  -9.9 °C 29.86in /  1011.1hPa North 2.0mph /  3.2km/h 6.0mph /  9.7km/h 86% 0.00in /  0mm
23:34 17.7 °F /  -7.9 °C 14.2 °F /  -9.9 °C 29.86in /  1011.1hPa North 3.0mph /  4.8km/h 11.0mph /  17.7km/h 86% 0.00in /  0mm
23:39 17.7 °F /  -7.9 °C 14.2 °F /  -9.9 °C 29.86in /  1011.1hPa North 1.0mph /  1.6km/h 11.0mph /  17.7km/h 86% 0.00in /  0mm
23:44 17.7 °F /  -7.9 °C 14.2 °F /  -9.9 °C 29.87in /  1011.4hPa North 1.0mph /  1.6km/h 10.0mph /  16.1km/h 86% 0.00in /  0mm
23:49 17.7 °F /  -7.9 °C 14.2 °F /  -9.9 °C 29.87in /  1011.4hPa North 1.0mph /  1.6km/h 10.0mph /  16.1km/h 86% 0.00in /  0mm
23:55 17.7 °F /  -7.9 °C 14.2 °F /  -9.9 °C 29.87in /  1011.4hPa North 1.0mph /  1.6km/h 8.0mph /  12.9km/h 86% 0.00in /  0mm
23:59 17.7 °F /  -7.9 °C 14.2 °F /  -9.9 °C 29.87in /  1011.4hPa NNE 3.0mph /  4.8km/h 10.0mph /  16.1km/h 86% 0.00in /  0mm
Westford Weather
Compliments of Weather Underground

 
 
Current Radar Loop:

Copyright © WestfordWeather.net 2007-2014. All rights reserved.